Williana, Louisiana
Current Conditions -  °F | °C
As of 8:53 PM on Tuesday 25 Nov 2014 (Local Time) from KAEX Reporting Station
Clear Clear  
Wind Chill: 36°   Ceiling: Unl
Heat Index: 39°   Visibility: 10mi
Dew Point: 34°   Wind: 5mph
Humidity: 82%   Direction: 130°SE
Pressure: 30.23"   Gusts: NA
Location:  31.6531°N, 92.5571°W
Report Text: KAEX 260253Z AUTO 13004KT 10SM CLR 04/01 A3023 RMK AO2 SLP241 T00390011 50004
Loading
Personal Weather Stations






























Interactive Weather Map New forecast layout! Learn more

10-Day Weather Forecast

Advertisements
Track Severe Weather on mobile